createdAt,value
2023-02-22T00:01:00.046Z,98997.44
2023-02-22T00:03:32.777Z,99010.59
2023-02-22T00:06:05.305Z,98999.72
2023-02-22T00:08:35.783Z,99010.44
2023-02-22T00:11:09.037Z,99016.28
2023-02-22T00:13:38.324Z,99016.59
2023-02-22T00:16:06.734Z,99022.66
2023-02-22T00:18:34.211Z,99020.19
2023-02-22T00:21:02.125Z,99022.66
2023-02-22T00:23:32.173Z,99016.94
2023-02-22T00:26:01.430Z,99016.78
2023-02-22T00:28:30.943Z,99025.41
2023-02-22T00:31:00.140Z,99037.78
2023-02-22T00:33:27.792Z,99032.53
2023-02-22T00:35:55.290Z,99039.38
2023-02-22T00:38:23.004Z,99043.28
2023-02-22T00:40:50.455Z,99054.38
2023-02-22T00:43:17.938Z,99056.63
2023-02-22T00:45:45.578Z,99058.09
2023-02-22T00:48:13.494Z,99060.50
2023-02-22T00:50:40.928Z,99068.16
2023-02-22T00:53:09.575Z,99064.28
2023-02-22T00:55:38.240Z,99072.88
2023-02-22T00:58:07.162Z,99073.53
2023-02-22T01:00:41.916Z,99080.19
2023-02-22T01:03:12.210Z,99083.59
2023-02-22T01:05:39.762Z,99087.88
2023-02-22T01:08:09.067Z,99097.13
2023-02-22T01:10:37.544Z,99101.34
2023-02-22T01:13:09.430Z,99111.09
2023-02-22T01:15:39.301Z,99118.41
2023-02-22T01:18:07.283Z,99118.09
2023-02-22T01:20:35.439Z,99128.84
2023-02-22T01:23:06.859Z,99143.16
2023-02-22T01:25:35.608Z,99149.97
2023-02-22T01:28:05.400Z,99160.69
2023-02-22T01:30:34.897Z,99154.00
2023-02-22T01:33:04.498Z,99167.53
2023-02-22T01:35:36.667Z,99175.34
2023-02-22T01:38:04.448Z,99179.22
2023-02-22T01:40:42.203Z,99181.34
2023-02-22T01:43:26.820Z,99177.25
2023-02-22T01:46:08.471Z,99178.72
2023-02-22T01:48:46.101Z,99189.78
2023-02-22T01:51:19.022Z,99197.03
2023-02-22T01:54:04.442Z,99196.06
2023-02-22T01:56:36.714Z,99207.44
2023-02-22T01:59:08.057Z,99210.25
2023-02-22T02:01:37.662Z,99204.72
2023-02-22T02:04:10.331Z,99224.28
2023-02-22T02:06:38.961Z,99221.91
2023-02-22T02:09:12.376Z,99237.00
2023-02-22T02:11:41.293Z,99232.16
2023-02-22T02:14:10.767Z,99247.47
2023-02-22T02:16:51.330Z,99244.38
2023-02-22T02:19:30.950Z,99251.44
2023-02-22T02:22:21.581Z,99248.75
2023-02-22T02:25:18.319Z,99264.72
2023-02-22T02:27:51.844Z,99262.78
2023-02-22T02:30:53.852Z,99271.72
2023-02-22T02:33:52.463Z,99268.31
2023-02-22T02:36:29.957Z,99272.66
2023-02-22T02:39:06.506Z,99273.28
2023-02-22T02:41:45.713Z,99280.06
2023-02-22T02:44:17.402Z,99276.38
2023-02-22T02:46:46.097Z,99275.22
2023-02-22T02:49:19.588Z,99284.84
2023-02-22T02:51:52.210Z,99288.94
2023-02-22T02:54:22.709Z,99291.53
2023-02-22T02:56:53.382Z,99294.50
2023-02-22T02:59:30.990Z,99299.72
2023-02-22T03:02:04.634Z,99303.63
2023-02-22T03:05:01.340Z,99307.19
2023-02-22T03:07:43.414Z,99309.03
2023-02-22T03:10:13.776Z,99305.84
2023-02-22T03:13:05.356Z,99315.22
2023-02-22T03:15:52.130Z,99316.53
2023-02-22T03:18:29.334Z,99329.00
2023-02-22T03:21:21.396Z,99328.63
2023-02-22T03:24:02.903Z,99320.16
2023-02-22T03:26:41.404Z,99322.56
2023-02-22T03:29:13.617Z,99327.00
2023-02-22T03:31:49.148Z,99323.44
2023-02-22T03:34:26.792Z,99328.44
2023-02-22T03:37:06.782Z,99322.00
2023-02-22T03:39:38.391Z,99335.47
2023-02-22T03:42:12.930Z,99330.94
2023-02-22T03:44:43.295Z,99340.28
2023-02-22T03:47:14.738Z,99347.41
2023-02-22T03:50:00.769Z,99345.75
2023-02-22T03:52:28.443Z,99355.44
2023-02-22T03:54:56.022Z,99357.66
2023-02-22T03:57:29.312Z,99378.81
2023-02-22T04:00:08.529Z,99377.50
2023-02-22T04:02:42.499Z,99384.91
2023-02-22T04:05:15.156Z,99392.91
2023-02-22T04:07:43.285Z,99397.00
2023-02-22T04:10:13.408Z,99403.13
2023-02-22T04:12:41.008Z,99419.63
2023-02-22T04:15:09.956Z,99411.28
2023-02-22T04:17:37.602Z,99411.19
2023-02-22T04:20:07.377Z,99425.50
2023-02-22T04:22:48.962Z,99426.41
2023-02-22T04:25:17.811Z,99430.03
2023-02-22T04:27:47.456Z,99429.25
2023-02-22T04:30:19.430Z,99445.75
2023-02-22T04:32:47.721Z,99440.03
2023-02-22T04:35:16.937Z,99438.44
2023-02-22T04:37:44.660Z,99435.19
2023-02-22T04:40:12.825Z,99451.66
2023-02-22T04:42:40.693Z,99447.31
2023-02-22T04:45:10.435Z,99445.00
2023-02-22T04:47:40.475Z,99444.72
2023-02-22T04:50:09.741Z,99446.88
2023-02-22T04:52:37.154Z,99458.34
2023-02-22T04:55:05.238Z,99466.13
2023-02-22T04:57:33.722Z,99456.31
2023-02-22T05:00:01.197Z,99470.22
2023-02-22T05:02:31.566Z,99472.47
2023-02-22T05:04:59.065Z,99466.47
2023-02-22T05:07:26.436Z,99472.91
2023-02-22T05:09:53.846Z,99484.25
2023-02-22T05:12:21.758Z,99489.16
2023-02-22T05:14:49.330Z,99489.16
2023-02-22T05:17:16.890Z,99488.47
2023-02-22T05:19:44.332Z,99492.47
2023-02-22T05:22:11.732Z,99493.81
2023-02-22T05:24:39.205Z,99500.50
2023-02-22T05:27:06.636Z,99499.84
2023-02-22T05:29:34.086Z,99499.34
2023-02-22T05:32:02.883Z,99520.66
2023-02-22T05:34:31.101Z,99521.19
2023-02-22T05:36:58.554Z,99517.91
2023-02-22T05:39:26.008Z,99524.97
2023-02-22T05:41:53.370Z,99535.38
2023-02-22T05:44:21.212Z,99524.16
2023-02-22T05:46:48.882Z,99521.66
2023-02-22T05:49:16.723Z,99525.22
2023-02-22T05:51:44.597Z,99532.63
2023-02-22T05:54:12.035Z,99536.94
2023-02-22T05:56:39.825Z,99536.38
2023-02-22T05:59:07.388Z,99533.94
2023-02-22T06:01:35.174Z,99538.03
2023-02-22T06:04:03.794Z,99546.41
2023-02-22T06:06:36.569Z,99546.69
2023-02-22T06:09:51.952Z,99547.13
2023-02-22T06:12:27.796Z,99546.88
2023-02-22T06:14:59.694Z,99554.13
2023-02-22T06:17:28.531Z,99544.47
2023-02-22T06:19:56.944Z,99543.13
2023-02-22T06:22:25.343Z,99554.28
2023-02-22T06:24:55.459Z,99547.00
2023-02-22T06:27:28.350Z,99552.09
2023-02-22T06:30:00.592Z,99552.13
2023-02-22T06:32:29.274Z,99551.75
2023-02-22T06:34:57.306Z,99553.41
2023-02-22T06:37:25.555Z,99545.75
2023-02-22T06:39:57.174Z,99541.75
2023-02-22T06:42:26.342Z,99536.94
2023-02-22T06:44:54.044Z,99556.88
2023-02-22T06:47:22.166Z,99539.25
2023-02-22T06:49:55.144Z,99565.91
2023-02-22T06:52:23.467Z,99559.75
2023-02-22T06:54:51.638Z,99568.50
2023-02-22T06:57:19.608Z,99583.72
2023-02-22T06:59:47.753Z,99584.63
2023-02-22T07:02:16.672Z,99588.44
2023-02-22T07:04:46.506Z,99596.94
2023-02-22T07:07:14.051Z,99601.69
2023-02-22T07:09:44.848Z,99595.84
2023-02-22T07:12:13.476Z,99603.25
2023-02-22T07:14:41.500Z,99606.50
2023-02-22T07:17:09.418Z,99605.81
2023-02-22T07:19:37.252Z,99605.00
2023-02-22T07:22:06.999Z,99621.25
2023-02-22T07:24:35.507Z,99609.63
2023-02-22T07:27:03.837Z,99626.97
2023-02-22T07:29:31.850Z,99632.81
2023-02-22T07:31:59.531Z,99640.38
2023-02-22T07:34:27.068Z,99635.72
2023-02-22T07:36:54.733Z,99651.59
2023-02-22T07:39:22.271Z,99648.28
2023-02-22T07:41:50.286Z,99654.72
2023-02-22T07:44:25.003Z,99667.72
2023-02-22T07:46:53.258Z,99668.25
2023-02-22T07:49:20.980Z,99666.72
2023-02-22T07:51:48.983Z,99673.44
2023-02-22T07:54:16.530Z,99662.22
2023-02-22T07:56:48.996Z,99673.97
2023-02-22T07:59:16.789Z,99681.31
2023-02-22T08:01:44.921Z,99685.06
2023-02-22T08:04:12.747Z,99699.41
2023-02-22T08:06:40.427Z,99712.75
2023-02-22T08:09:08.116Z,99696.94
2023-02-22T08:11:35.789Z,99706.25
2023-02-22T08:14:03.472Z,99718.94
2023-02-22T08:16:31.036Z,99731.88
2023-02-22T08:18:58.734Z,99737.56
2023-02-22T08:21:26.555Z,99734.41
2023-02-22T08:23:56.723Z,99725.72
2023-02-22T08:26:25.808Z,99737.16
2023-02-22T08:28:53.282Z,99741.31
2023-02-22T08:31:21.142Z,99740.78
2023-02-22T08:33:50.220Z,99752.41
2023-02-22T08:36:19.208Z,99749.34
2023-02-22T08:38:46.679Z,99739.16
2023-02-22T08:41:14.276Z,99754.69
2023-02-22T08:43:41.772Z,99755.97
2023-02-22T08:46:09.400Z,99757.38
2023-02-22T08:48:37.565Z,99768.16
2023-02-22T08:51:05.670Z,99774.56
2023-02-22T08:53:33.546Z,99769.13
2023-02-22T08:56:01.304Z,99764.06
2023-02-22T08:58:29.017Z,99780.66
2023-02-22T09:00:56.759Z,99778.09
2023-02-22T09:03:24.458Z,99797.00
2023-02-22T09:05:52.157Z,99781.06
2023-02-22T09:08:21.934Z,99792.25
2023-02-22T09:10:52.018Z,99790.81
2023-02-22T09:13:19.828Z,99794.00
2023-02-22T09:15:47.512Z,99801.50
2023-02-22T09:18:15.539Z,99809.19
2023-02-22T09:20:43.693Z,99817.44
2023-02-22T09:23:15.569Z,99830.97
2023-02-22T09:25:43.405Z,99832.81
2023-02-22T09:28:12.172Z,99837.22
2023-02-22T09:30:40.199Z,99840.41
2023-02-22T09:33:11.602Z,99844.97
2023-02-22T09:35:46.654Z,99845.91
2023-02-22T09:38:17.934Z,99857.91
2023-02-22T09:40:55.311Z,99853.94
2023-02-22T09:43:45.851Z,99858.78
2023-02-22T09:46:13.942Z,99864.34
2023-02-22T09:49:14.297Z,99864.31
2023-02-22T09:51:50.506Z,99862.38
2023-02-22T09:54:24.044Z,99855.97
2023-02-22T09:56:57.714Z,99871.22
2023-02-22T09:59:32.278Z,99868.41
2023-02-22T10:02:29.689Z,99883.34
2023-02-22T10:05:06.048Z,99879.63
2023-02-22T10:07:39.608Z,99902.44
2023-02-22T10:10:14.094Z,99901.00
2023-02-22T10:13:10.997Z,99910.69
2023-02-22T10:15:41.647Z,99931.22
2023-02-22T10:18:56.643Z,99931.88
2023-02-22T10:22:05.266Z,99926.88
2023-02-22T10:24:46.786Z,99940.34
2023-02-22T10:27:20.197Z,99936.69
2023-02-22T10:29:53.415Z,99942.84
2023-02-22T10:32:32.012Z,99949.50
2023-02-22T10:35:05.792Z,99951.16
2023-02-22T10:37:34.930Z,99948.06
2023-02-22T10:40:14.367Z,99949.03
2023-02-22T10:42:41.893Z,99970.44
2023-02-22T10:45:38.927Z,99975.25
2023-02-22T10:48:18.854Z,99960.19
2023-02-22T10:50:47.275Z,99975.69
2023-02-22T10:53:18.096Z,99971.53
2023-02-22T10:56:23.396Z,99976.38
2023-02-22T10:58:58.422Z,99976.53
2023-02-22T11:01:27.931Z,99976.22
2023-02-22T11:04:16.446Z,99980.44
2023-02-22T11:06:47.036Z,100000.16
2023-02-22T11:09:19.828Z,99998.16
2023-02-22T11:11:50.107Z,100000.53
2023-02-22T11:14:30.107Z,99985.00
2023-02-22T11:16:59.916Z,99998.13
2023-02-22T11:19:34.763Z,100001.22
2023-02-22T11:22:23.532Z,100008.66
2023-02-22T11:24:58.003Z,100006.72
2023-02-22T11:27:38.994Z,100014.56
2023-02-22T11:30:25.148Z,100023.53
2023-02-22T11:32:58.851Z,100022.94
2023-02-22T11:35:29.653Z,100035.72
2023-02-22T11:38:16.696Z,100035.84
2023-02-22T11:40:46.073Z,100040.16
2023-02-22T11:43:21.191Z,100034.88
2023-02-22T11:46:02.967Z,100045.50
2023-02-22T11:48:35.118Z,100042.97
2023-02-22T11:51:17.235Z,100045.13
2023-02-22T11:54:12.257Z,100039.47
2023-02-22T11:57:08.374Z,100039.63
2023-02-22T11:59:44.602Z,100058.22
2023-02-22T12:02:57.476Z,100054.31
2023-02-22T12:05:59.927Z,100066.59
2023-02-22T12:08:54.813Z,100063.09
2023-02-22T12:11:51.075Z,100076.84
2023-02-22T12:14:26.627Z,100063.59
2023-02-22T12:17:14.287Z,100069.28
2023-02-22T12:19:51.729Z,100088.00
2023-02-22T12:22:30.305Z,100084.25
2023-02-22T12:25:16.606Z,100097.16
2023-02-22T12:27:49.595Z,100084.47
2023-02-22T12:30:20.402Z,100109.22
2023-02-22T12:32:54.786Z,100104.25
2023-02-22T12:35:36.860Z,100103.53
2023-02-22T12:38:23.394Z,100125.03
2023-02-22T12:40:58.554Z,100118.00
2023-02-22T12:43:39.967Z,100127.53
2023-02-22T12:46:14.770Z,100148.41
2023-02-22T12:49:11.653Z,100148.06
2023-02-22T12:51:57.066Z,100148.94
2023-02-22T12:54:43.493Z,100172.56
2023-02-22T12:57:42.397Z,100166.47
2023-02-22T13:00:23.488Z,100169.81
2023-02-22T13:03:46.656Z,100174.97
2023-02-22T13:06:33.749Z,100177.81
2023-02-22T13:09:24.684Z,100177.19
2023-02-22T13:12:19.736Z,100170.88
2023-02-22T13:15:01.700Z,100179.75
2023-02-22T13:17:52.039Z,100192.34
2023-02-22T13:20:33.372Z,100188.22
2023-02-22T13:23:24.322Z,100181.84
2023-02-22T13:25:57.950Z,100193.81
2023-02-22T13:28:36.802Z,100203.22
2023-02-22T13:31:30.748Z,100210.69
2023-02-22T13:34:16.917Z,100236.66
2023-02-22T13:37:07.560Z,100221.53
2023-02-22T13:39:37.864Z,100226.59
2023-02-22T13:42:08.233Z,100223.75
2023-02-22T13:44:50.689Z,100237.00
2023-02-22T13:47:42.546Z,100240.78
2023-02-22T13:50:31.144Z,100255.56
2023-02-22T13:53:00.447Z,100258.16
2023-02-22T13:55:33.073Z,100263.84
2023-02-22T13:58:12.028Z,100282.94
2023-02-22T14:00:49.990Z,100266.94
2023-02-22T14:03:41.235Z,100287.34
2023-02-22T14:06:11.625Z,100282.69
2023-02-22T14:08:41.962Z,100292.47
2023-02-22T14:11:15.616Z,100305.22
2023-02-22T14:14:01.246Z,100303.75
2023-02-22T14:16:30.444Z,100307.41
2023-02-22T14:19:13.567Z,100307.97
2023-02-22T14:22:02.672Z,100307.66
2023-02-22T14:24:43.011Z,100325.09
2023-02-22T14:27:11.742Z,100331.63
2023-02-22T14:29:51.365Z,100341.47
2023-02-22T14:32:20.042Z,100346.94
2023-02-22T14:34:52.871Z,100346.28
2023-02-22T14:37:28.322Z,100343.75
2023-02-22T14:39:55.532Z,100355.03
2023-02-22T14:42:36.709Z,100357.97
2023-02-22T14:45:10.312Z,100363.28
2023-02-22T14:47:49.820Z,100379.66
2023-02-22T14:50:25.061Z,100377.63
2023-02-22T14:53:22.435Z,100405.59
2023-02-22T14:56:02.840Z,100394.50
2023-02-22T14:58:39.670Z,100403.25
2023-02-22T15:01:27.186Z,100385.69
2023-02-22T15:04:07.820Z,100410.97
2023-02-22T15:06:36.036Z,100412.34
2023-02-22T15:09:28.770Z,100410.78
2023-02-22T15:12:03.159Z,100431.88
2023-02-22T15:14:33.459Z,100426.50
2023-02-22T15:17:04.300Z,100434.19
2023-02-22T15:19:35.253Z,100425.06
2023-02-22T15:22:03.269Z,100450.16
2023-02-22T15:24:33.693Z,100450.66
2023-02-22T15:27:13.331Z,100448.78
2023-02-22T15:29:46.481Z,100449.94
2023-02-22T15:32:49.957Z,100449.84
2023-02-22T15:35:31.141Z,100462.94
2023-02-22T15:38:20.428Z,100456.19
2023-02-22T15:40:51.074Z,100460.84
2023-02-22T15:43:24.667Z,100473.81
2023-02-22T15:45:52.739Z,100476.09
2023-02-22T15:48:20.402Z,100481.44
2023-02-22T15:51:12.616Z,100493.09
2023-02-22T15:53:48.740Z,100501.06
2023-02-22T15:56:19.257Z,100498.19
2023-02-22T15:58:47.886Z,100493.63
2023-02-22T16:01:19.639Z,100506.66
2023-02-22T16:03:49.141Z,100516.69
2023-02-22T16:06:33.660Z,100524.81
2023-02-22T16:09:13.526Z,100528.88
2023-02-22T16:11:50.719Z,100540.75
2023-02-22T16:14:26.139Z,100537.09
2023-02-22T16:17:12.731Z,100551.84
2023-02-22T16:19:44.397Z,100547.16
2023-02-22T16:22:49.619Z,100539.16
2023-02-22T16:25:37.975Z,100539.44
2023-02-22T16:28:31.106Z,100538.25
2023-02-22T16:30:58.882Z,100549.53
2023-02-22T16:33:30.447Z,100548.56
2023-02-22T16:35:58.081Z,100541.34
2023-02-22T16:38:27.737Z,100541.47
2023-02-22T16:40:58.617Z,100545.94
2023-02-22T16:43:30.058Z,100554.66
2023-02-22T16:45:57.836Z,100554.47
2023-02-22T16:48:27.584Z,100571.59
2023-02-22T16:50:59.506Z,100572.22
2023-02-22T16:53:31.207Z,100573.50
2023-02-22T16:56:03.694Z,100578.38
2023-02-22T16:58:34.768Z,100575.56
2023-02-22T17:01:02.333Z,100594.66
2023-02-22T17:03:29.872Z,100580.56
2023-02-22T17:05:57.352Z,100594.09
2023-02-22T17:08:25.329Z,100598.06
2023-02-22T17:10:57.856Z,100602.16
2023-02-22T17:13:53.854Z,100605.03
2023-02-22T17:16:21.552Z,100611.53
2023-02-22T17:18:50.045Z,100615.91
2023-02-22T17:21:17.431Z,100605.13
2023-02-22T17:23:46.274Z,100596.31
2023-02-22T17:26:15.991Z,100618.13
2023-02-22T17:28:44.332Z,100623.13
2023-02-22T17:31:20.992Z,100618.75
2023-02-22T17:33:48.717Z,100635.94
2023-02-22T17:36:16.436Z,100640.56
2023-02-22T17:38:44.063Z,100639.72
2023-02-22T17:41:11.423Z,100640.56
2023-02-22T17:43:38.831Z,100652.47
2023-02-22T17:46:10.840Z,100638.75
2023-02-22T17:48:39.152Z,100640.47
2023-02-22T17:51:08.865Z,100650.00
2023-02-22T17:53:36.425Z,100653.09
2023-02-22T17:56:13.642Z,100659.13
2023-02-22T17:58:42.031Z,100661.13
2023-02-22T18:01:27.336Z,100659.75
2023-02-22T18:03:56.656Z,100668.66
2023-02-22T18:06:28.612Z,100677.53
2023-02-22T18:08:58.010Z,100670.78
2023-02-22T18:11:28.126Z,100683.22
2023-02-22T18:13:57.409Z,100673.63
2023-02-22T18:16:26.187Z,100685.66
2023-02-22T18:18:55.468Z,100683.78
2023-02-22T18:21:24.051Z,100690.09
2023-02-22T18:23:51.477Z,100699.66
2023-02-22T18:26:21.584Z,100696.44
2023-02-22T18:28:49.069Z,100704.84
2023-02-22T18:31:19.306Z,100705.78
2023-02-22T18:33:49.406Z,100721.16
2023-02-22T18:36:23.388Z,100716.66
2023-02-22T18:38:55.438Z,100720.84
2023-02-22T18:41:27.272Z,100713.19
2023-02-22T18:43:55.786Z,100717.56
2023-02-22T18:46:24.683Z,100715.59
2023-02-22T18:48:55.257Z,100724.06
2023-02-22T18:51:24.219Z,100734.91
2023-02-22T18:53:57.142Z,100733.22
2023-02-22T18:56:30.122Z,100739.53
2023-02-22T18:59:00.386Z,100743.59
2023-02-22T19:01:28.715Z,100739.75
2023-02-22T19:03:56.282Z,100738.44
2023-02-22T19:06:23.823Z,100754.09
2023-02-22T19:08:51.634Z,100746.78
2023-02-22T19:11:24.247Z,100743.78
2023-02-22T19:13:54.712Z,100742.34
2023-02-22T19:16:24.437Z,100741.53
2023-02-22T19:18:57.648Z,100744.53
2023-02-22T19:21:27.397Z,100740.31
2023-02-22T19:24:01.099Z,100740.56
2023-02-22T19:26:29.738Z,100749.00
2023-02-22T19:28:59.877Z,100731.19
2023-02-22T19:31:34.085Z,100743.16
2023-02-22T19:34:05.873Z,100754.31
2023-02-22T19:36:33.264Z,100771.56
2023-02-22T19:39:02.251Z,100746.56
2023-02-22T19:41:30.296Z,100761.78
2023-02-22T19:43:58.734Z,100745.28
2023-02-22T19:46:26.182Z,100749.06
2023-02-22T19:48:55.614Z,100757.53
2023-02-22T19:51:25.813Z,100764.94
2023-02-22T19:53:53.845Z,100752.19
2023-02-22T19:56:27.383Z,100770.72
2023-02-22T19:58:57.103Z,100767.81
2023-02-22T20:01:27.484Z,100768.16
2023-02-22T20:04:00.172Z,100769.19
2023-02-22T20:06:30.976Z,100776.22
2023-02-22T20:08:58.322Z,100778.78
2023-02-22T20:11:25.754Z,100784.09
2023-02-22T20:13:55.853Z,100769.66
2023-02-22T20:16:24.469Z,100788.25
2023-02-22T20:18:51.999Z,100786.97
2023-02-22T20:21:23.456Z,100790.47
2023-02-22T20:23:51.160Z,100791.97
2023-02-22T20:26:25.248Z,100800.75
2023-02-22T20:28:53.106Z,100803.31
2023-02-22T20:31:22.080Z,100802.34
2023-02-22T20:33:54.342Z,100804.63
2023-02-22T20:36:22.429Z,100807.41
2023-02-22T20:38:54.184Z,100814.41
2023-02-22T20:41:30.239Z,100821.91
2023-02-22T20:43:57.818Z,100813.78
2023-02-22T20:46:27.077Z,100812.47
2023-02-22T20:48:56.015Z,100822.75
2023-02-22T20:51:24.259Z,100816.88
2023-02-22T20:53:51.775Z,100810.94
2023-02-22T20:56:23.706Z,100815.91
2023-02-22T20:58:51.550Z,100832.50
2023-02-22T21:01:21.061Z,100825.81
